createdAt,value
2017-10-19T00:00:46.513Z,29.07
2017-10-19T00:03:14.042Z,41.80
2017-10-19T00:05:41.546Z,28.67
2017-10-19T00:08:09.273Z,31.10
2017-10-19T00:10:36.773Z,32.77
2017-10-19T00:13:04.274Z,31.47
2017-10-19T00:15:31.799Z,30.27
2017-10-19T00:17:59.288Z,30.17
2017-10-19T00:20:26.780Z,27.40
2017-10-19T00:22:54.319Z,30.63
2017-10-19T00:25:21.807Z,29.13
2017-10-19T00:27:49.340Z,31.50
2017-10-19T00:30:16.912Z,29.37
2017-10-19T00:32:44.444Z,33.23
2017-10-19T00:35:12.037Z,34.40
2017-10-19T00:37:39.592Z,31.30
2017-10-19T00:40:07.116Z,32.37
2017-10-19T00:42:34.649Z,33.33
2017-10-19T00:45:02.230Z,31.33
2017-10-19T00:47:29.760Z,31.63
2017-10-19T00:49:57.289Z,30.37
2017-10-19T00:52:24.879Z,33.50
2017-10-19T00:54:52.413Z,31.90
2017-10-19T00:57:19.917Z,33.73
2017-10-19T00:59:47.445Z,31.63
2017-10-19T01:02:14.946Z,30.70
2017-10-19T01:04:42.439Z,31.80
2017-10-19T01:07:10.070Z,30.73
2017-10-19T01:09:38.427Z,32.30
2017-10-19T01:12:05.919Z,30.73
2017-10-19T01:14:33.443Z,32.57
2017-10-19T01:17:00.934Z,30.83
2017-10-19T01:19:28.428Z,32.50
2017-10-19T01:21:55.963Z,32.13
2017-10-19T01:24:23.459Z,32.00
2017-10-19T01:26:50.956Z,32.37
2017-10-19T01:29:18.615Z,31.93
2017-10-19T01:31:46.108Z,34.80
2017-10-19T01:34:13.606Z,33.00
2017-10-19T01:36:41.156Z,34.53
2017-10-19T01:39:08.656Z,31.07
2017-10-19T01:41:36.154Z,31.20
2017-10-19T01:44:03.695Z,33.90
2017-10-19T01:46:31.228Z,35.40
2017-10-19T01:48:58.720Z,33.00
2017-10-19T01:51:26.258Z,33.30
2017-10-19T01:53:53.757Z,31.50
2017-10-19T01:56:21.252Z,34.30
2017-10-19T01:58:48.924Z,33.93
2017-10-19T02:01:16.420Z,34.57
2017-10-19T02:03:43.930Z,32.23
2017-10-19T02:06:11.495Z,33.37
2017-10-19T02:08:38.992Z,32.27
2017-10-19T02:11:06.509Z,32.40
2017-10-19T02:13:34.068Z,31.77
2017-10-19T02:16:01.568Z,31.37
2017-10-19T02:18:29.058Z,31.87
2017-10-19T02:20:56.748Z,33.80
2017-10-19T02:23:24.247Z,33.77
2017-10-19T02:25:51.736Z,35.10
2017-10-19T02:28:19.349Z,33.23
2017-10-19T02:30:46.841Z,35.10
2017-10-19T02:33:14.332Z,35.07
2017-10-19T02:35:41.882Z,31.63
2017-10-19T02:38:09.380Z,33.73
2017-10-19T02:40:36.877Z,34.33
2017-10-19T02:43:04.479Z,33.07
2017-10-19T02:45:32.039Z,31.50
2017-10-19T02:47:59.536Z,32.67
2017-10-19T02:50:27.063Z,33.03
2017-10-19T02:52:54.613Z,35.40
2017-10-19T02:55:22.170Z,33.37
2017-10-19T02:57:49.740Z,34.37
2017-10-19T03:00:17.231Z,33.93
2017-10-19T03:02:44.763Z,32.30
2017-10-19T03:05:12.307Z,33.10
2017-10-19T03:07:39.868Z,34.83
2017-10-19T03:10:07.523Z,33.20
2017-10-19T03:12:35.020Z,33.80
2017-10-19T03:15:02.512Z,32.60
2017-10-19T03:17:30.043Z,33.33
2017-10-19T03:19:57.530Z,32.30
2017-10-19T03:22:25.036Z,32.50
2017-10-19T03:24:52.675Z,33.80
2017-10-19T03:27:20.171Z,30.67
2017-10-19T03:29:47.663Z,27.50
2017-10-19T03:32:15.208Z,34.43
2017-10-19T03:34:42.696Z,41.50
2017-10-19T03:37:10.196Z,34.37
2017-10-19T03:39:37.837Z,36.00
2017-10-19T03:42:05.339Z,33.17
2017-10-19T03:44:32.849Z,33.73
2017-10-19T03:47:00.411Z,33.80
2017-10-19T03:49:27.965Z,36.10
2017-10-19T03:51:55.460Z,33.70
2017-10-19T03:54:23.000Z,33.87
2017-10-19T03:56:50.503Z,33.17
2017-10-19T03:59:17.996Z,29.93
2017-10-19T04:01:45.525Z,31.67
2017-10-19T04:04:13.021Z,33.40
2017-10-19T04:06:40.508Z,36.67
2017-10-19T04:09:08.034Z,35.00
2017-10-19T04:11:35.532Z,35.43
2017-10-19T04:14:03.026Z,33.77
2017-10-19T04:16:30.544Z,33.87
2017-10-19T04:18:58.068Z,32.83
2017-10-19T04:21:25.544Z,30.30
2017-10-19T04:23:53.286Z,31.20
2017-10-19T04:26:20.845Z,43.47
2017-10-19T04:28:48.403Z,31.67
2017-10-19T04:31:15.973Z,31.43
2017-10-19T04:33:43.520Z,33.50
2017-10-19T04:36:11.007Z,31.87
2017-10-19T04:38:38.627Z,32.40
2017-10-19T04:41:06.113Z,29.20
2017-10-19T04:43:33.595Z,30.87
2017-10-19T04:46:01.194Z,31.27
2017-10-19T04:48:28.689Z,29.90
2017-10-19T04:50:56.231Z,30.53
2017-10-19T04:53:23.798Z,30.33
2017-10-19T04:55:51.354Z,31.50
2017-10-19T04:58:18.852Z,30.80
2017-10-19T05:00:46.420Z,30.63
2017-10-19T05:03:13.913Z,30.73
2017-10-19T05:05:41.406Z,29.77
2017-10-19T05:08:08.953Z,31.73
2017-10-19T05:10:36.448Z,33.93
2017-10-19T05:13:03.940Z,31.57
2017-10-19T05:15:31.620Z,34.03
2017-10-19T05:17:59.111Z,34.27
2017-10-19T05:20:26.608Z,31.50
2017-10-19T05:22:54.155Z,34.63
2017-10-19T05:25:21.651Z,36.53
2017-10-19T05:27:49.146Z,34.43
2017-10-19T05:30:16.688Z,29.57
2017-10-19T05:32:44.183Z,35.67
2017-10-19T05:35:11.679Z,34.90
2017-10-19T05:37:39.340Z,29.37
2017-10-19T05:40:06.924Z,28.40
2017-10-19T05:42:34.462Z,31.53
2017-10-19T05:45:01.987Z,27.37
2017-10-19T05:47:29.489Z,33.80
2017-10-19T05:49:56.984Z,32.77
2017-10-19T05:52:24.595Z,30.17
2017-10-19T05:54:52.161Z,28.03
2017-10-19T05:57:19.715Z,26.70
2017-10-19T05:59:47.372Z,26.40
2017-10-19T06:02:14.868Z,24.97
2017-10-19T06:04:42.363Z,24.87
2017-10-19T06:07:10.052Z,24.20
2017-10-19T06:09:37.607Z,26.17
2017-10-19T06:12:05.107Z,26.97
2017-10-19T06:14:32.652Z,28.63
2017-10-19T06:17:00.145Z,26.80
2017-10-19T06:19:27.641Z,25.50
2017-10-19T06:21:55.169Z,32.77
2017-10-19T06:24:22.677Z,24.50
2017-10-19T06:26:50.335Z,30.10
2017-10-19T06:29:17.833Z,22.97
2017-10-19T06:31:45.343Z,31.07
2017-10-19T06:34:12.884Z,36.03
2017-10-19T06:36:40.373Z,28.10
2017-10-19T06:39:07.888Z,31.07
2017-10-19T06:41:35.598Z,27.70
2017-10-19T06:44:03.091Z,35.10
2017-10-19T06:46:30.594Z,28.50
2017-10-19T06:48:58.255Z,28.03
2017-10-19T06:51:25.745Z,29.30
2017-10-19T06:53:53.246Z,30.67
2017-10-19T06:56:20.786Z,30.47
2017-10-19T06:58:48.285Z,34.87
2017-10-19T07:01:15.784Z,31.23
2017-10-19T07:03:43.363Z,30.23
2017-10-19T07:06:10.884Z,29.13
2017-10-19T07:08:38.381Z,29.60
2017-10-19T07:11:05.983Z,30.23
2017-10-19T07:13:33.479Z,32.87
2017-10-19T07:16:00.970Z,31.07
2017-10-19T07:18:28.554Z,31.43
2017-10-19T07:20:56.048Z,34.60
2017-10-19T07:23:23.543Z,31.40
2017-10-19T07:25:51.080Z,34.90
2017-10-19T07:28:18.568Z,33.60
2017-10-19T07:30:46.066Z,35.87
2017-10-19T07:33:13.595Z,35.23
2017-10-19T07:35:41.088Z,35.57
2017-10-19T07:38:08.593Z,34.03
2017-10-19T07:40:36.148Z,38.77
2017-10-19T07:43:03.640Z,28.20
2017-10-19T07:45:31.203Z,34.33
2017-10-19T07:47:58.748Z,37.63
2017-10-19T07:50:26.257Z,37.40
2017-10-19T07:52:53.753Z,39.97
2017-10-19T07:55:21.355Z,36.03
2017-10-19T07:57:48.854Z,39.93
2017-10-19T08:00:16.353Z,44.27
2017-10-19T08:02:43.888Z,42.67
2017-10-19T08:05:12.353Z,40.83
2017-10-19T08:07:39.842Z,45.80
2017-10-19T08:10:07.383Z,56.33
2017-10-19T08:12:34.881Z,42.80
2017-10-19T08:15:02.428Z,37.47
2017-10-19T08:17:29.965Z,41.67
2017-10-19T08:19:57.456Z,36.97
2017-10-19T08:22:24.995Z,36.27
2017-10-19T08:24:52.510Z,42.60
2017-10-19T08:27:20.037Z,40.97
2017-10-19T08:29:47.591Z,41.10
2017-10-19T08:32:15.087Z,41.87
2017-10-19T08:34:42.718Z,42.67
2017-10-19T08:37:10.238Z,45.37
2017-10-19T08:39:37.816Z,42.83
2017-10-19T08:42:05.310Z,44.77
2017-10-19T08:44:32.848Z,46.00
2017-10-19T08:47:00.398Z,46.50
2017-10-19T08:49:27.885Z,44.80
2017-10-19T08:51:55.408Z,45.07
2017-10-19T08:54:22.900Z,46.37
2017-10-19T08:56:50.424Z,43.10
2017-10-19T08:59:17.955Z,45.83
2017-10-19T09:01:45.448Z,44.27
2017-10-19T09:04:12.991Z,63.23
2017-10-19T09:06:40.523Z,47.13
2017-10-19T09:09:08.031Z,47.23
2017-10-19T09:11:35.521Z,47.47
2017-10-19T09:14:03.065Z,45.50
2017-10-19T09:16:30.583Z,44.43
2017-10-19T09:18:58.086Z,41.53
2017-10-19T09:21:25.619Z,42.43
2017-10-19T09:23:53.107Z,48.30
2017-10-19T09:26:20.610Z,45.30
2017-10-19T09:28:48.178Z,47.37
2017-10-19T09:31:15.736Z,42.20
2017-10-19T09:33:43.229Z,44.97
2017-10-19T09:36:10.772Z,46.50
2017-10-19T09:38:38.263Z,46.47
2017-10-19T09:41:05.775Z,48.20
2017-10-19T09:43:33.354Z,49.27
2017-10-19T09:46:00.848Z,47.97
2017-10-19T09:48:28.342Z,48.07
2017-10-19T09:50:56.013Z,48.10
2017-10-19T09:53:23.511Z,47.23
2017-10-19T09:55:51.003Z,49.03
2017-10-19T09:58:18.683Z,49.20
2017-10-19T10:00:46.180Z,46.27
2017-10-19T10:03:13.711Z,50.73
2017-10-19T10:05:41.241Z,49.97
2017-10-19T10:08:08.739Z,49.63
2017-10-19T10:10:36.282Z,47.17
2017-10-19T10:13:03.840Z,50.07
2017-10-19T10:15:31.326Z,53.77
2017-10-19T10:17:58.815Z,49.97
2017-10-19T10:20:26.355Z,46.37
2017-10-19T10:22:53.868Z,45.57
2017-10-19T10:25:21.372Z,49.40
2017-10-19T10:27:48.988Z,53.00
2017-10-19T10:30:16.476Z,47.60
2017-10-19T10:32:43.971Z,45.77
2017-10-19T10:35:11.567Z,48.40
2017-10-19T10:37:39.060Z,47.00
2017-10-19T10:40:06.586Z,45.80
2017-10-19T10:42:34.124Z,46.50
2017-10-19T10:45:01.625Z,46.17
2017-10-19T10:47:29.138Z,46.37
2017-10-19T10:49:56.663Z,47.17
2017-10-19T10:52:24.161Z,47.47
2017-10-19T10:54:51.681Z,45.40
2017-10-19T10:57:19.213Z,47.00
2017-10-19T10:59:46.708Z,49.90
2017-10-19T11:02:14.311Z,47.60
2017-10-19T11:04:41.856Z,47.60
2017-10-19T11:07:09.353Z,46.07
2017-10-19T11:09:36.857Z,49.57
2017-10-19T11:12:04.408Z,46.33
2017-10-19T11:14:31.903Z,50.90
2017-10-19T11:16:59.464Z,49.20
2017-10-19T11:19:26.992Z,50.03
2017-10-19T11:21:54.491Z,50.00
2017-10-19T11:24:22.040Z,51.70
2017-10-19T11:26:49.585Z,48.70
2017-10-19T11:29:17.082Z,52.60
2017-10-19T11:31:44.580Z,51.97
2017-10-19T11:34:12.105Z,52.10
2017-10-19T11:36:39.605Z,48.10
2017-10-19T11:39:07.092Z,51.50
2017-10-19T11:41:34.630Z,49.50
2017-10-19T11:44:02.204Z,49.43
2017-10-19T11:46:29.701Z,50.20
2017-10-19T11:48:57.237Z,51.57
2017-10-19T11:51:24.737Z,51.10
2017-10-19T11:53:52.252Z,52.50
2017-10-19T11:56:19.780Z,54.23
2017-10-19T11:58:47.274Z,57.80
2017-10-19T12:01:14.764Z,56.63
2017-10-19T12:03:42.294Z,53.77
2017-10-19T12:06:09.825Z,55.90
2017-10-19T12:08:37.367Z,53.20
2017-10-19T12:11:04.927Z,53.80
2017-10-19T12:13:32.422Z,54.37
2017-10-19T12:15:59.911Z,54.30
2017-10-19T12:18:27.437Z,58.97
2017-10-19T12:20:54.936Z,58.33
2017-10-19T12:23:22.537Z,55.63
2017-10-19T12:25:50.111Z,57.10
2017-10-19T12:28:17.613Z,55.60
2017-10-19T12:30:45.109Z,53.60
2017-10-19T12:33:12.628Z,57.10
2017-10-19T12:35:40.133Z,58.70
2017-10-19T12:38:07.664Z,61.03
2017-10-19T12:40:35.252Z,62.53
2017-10-19T12:43:02.747Z,57.97
2017-10-19T12:45:30.291Z,60.97
2017-10-19T12:47:57.835Z,58.83
2017-10-19T12:50:25.340Z,65.60
2017-10-19T12:52:53.043Z,61.70
2017-10-19T12:55:20.529Z,58.67
2017-10-19T12:57:48.066Z,57.97
2017-10-19T13:00:15.731Z,59.73
2017-10-19T13:02:43.228Z,61.47
2017-10-19T13:05:10.732Z,62.50
2017-10-19T13:07:38.408Z,63.70
2017-10-19T13:10:05.972Z,63.80
2017-10-19T13:12:33.465Z,58.80
2017-10-19T13:15:01.003Z,63.43
2017-10-19T13:17:28.500Z,63.50
2017-10-19T13:19:56.007Z,59.80
2017-10-19T13:22:23.545Z,58.63
2017-10-19T13:24:51.043Z,60.83
2017-10-19T13:27:18.546Z,60.97
2017-10-19T13:29:46.086Z,62.07
2017-10-19T13:32:13.583Z,57.70
2017-10-19T13:34:41.146Z,58.87
2017-10-19T13:37:08.677Z,60.60
2017-10-19T13:39:36.168Z,56.10
2017-10-19T13:42:03.730Z,59.60
2017-10-19T13:44:31.262Z,58.33
2017-10-19T13:46:58.759Z,62.33
2017-10-19T13:49:26.259Z,59.20
2017-10-19T13:51:53.805Z,58.00
2017-10-19T13:54:21.295Z,60.27
2017-10-19T13:56:48.883Z,62.50
2017-10-19T13:59:16.411Z,62.23
2017-10-19T14:01:43.998Z,60.57
2017-10-19T14:04:11.555Z,63.13
2017-10-19T14:06:39.215Z,77.50
2017-10-19T14:09:06.715Z,84.73
2017-10-19T14:11:34.243Z,77.77
2017-10-19T14:14:01.810Z,79.20
2017-10-19T14:16:29.303Z,71.10
2017-10-19T14:18:56.818Z,66.70
2017-10-19T14:21:24.348Z,69.57
2017-10-19T14:23:51.854Z,63.10
2017-10-19T14:26:19.353Z,63.03
2017-10-19T14:28:46.878Z,60.63
2017-10-19T14:31:14.379Z,60.83
2017-10-19T14:33:42.060Z,60.07
2017-10-19T14:36:09.576Z,64.00
2017-10-19T14:38:37.084Z,64.70
2017-10-19T14:41:04.623Z,61.80
2017-10-19T14:43:32.116Z,67.80
2017-10-19T14:45:59.612Z,62.43
2017-10-19T14:48:27.161Z,67.00
2017-10-19T14:50:54.661Z,62.40
2017-10-19T14:53:22.255Z,64.63
2017-10-19T14:55:49.797Z,67.53
2017-10-19T14:58:17.298Z,64.37
2017-10-19T15:00:44.862Z,64.10
2017-10-19T15:03:12.361Z,65.03
2017-10-19T15:05:39.958Z,69.03
2017-10-19T15:08:07.498Z,66.70
2017-10-19T15:10:35.039Z,68.10
2017-10-19T15:13:02.698Z,67.00
2017-10-19T15:15:30.291Z,65.07
2017-10-19T15:17:57.801Z,65.07
2017-10-19T15:20:25.518Z,69.07
2017-10-19T15:22:53.076Z,68.63
2017-10-19T15:25:20.594Z,67.10
2017-10-19T15:27:48.150Z,68.40
2017-10-19T15:30:15.654Z,65.40
2017-10-19T15:32:43.217Z,68.10
2017-10-19T15:35:10.761Z,66.10
2017-10-19T15:37:38.275Z,69.23
2017-10-19T15:40:05.787Z,70.27
2017-10-19T15:42:33.336Z,71.67
2017-10-19T15:45:01.055Z,73.97
2017-10-19T15:47:28.582Z,73.33
2017-10-19T15:49:56.108Z,75.90
2017-10-19T15:52:23.786Z,74.57
2017-10-19T15:54:51.291Z,76.53
2017-10-19T15:57:18.803Z,76.57
2017-10-19T15:59:46.384Z,75.27
2017-10-19T16:02:13.935Z,76.67
2017-10-19T16:04:41.513Z,74.73
2017-10-19T16:07:09.825Z,76.83
2017-10-19T16:09:37.392Z,75.70
2017-10-19T16:12:04.920Z,72.70
2017-10-19T16:14:32.451Z,79.63
2017-10-19T16:17:00.028Z,79.23
2017-10-19T16:19:27.653Z,77.80
2017-10-19T16:21:56.982Z,85.40
2017-10-19T16:24:24.621Z,81.67
2017-10-19T16:29:25.930Z,86.83
2017-10-19T16:31:53.470Z,82.13
2017-10-19T16:34:21.003Z,84.07
2017-10-19T16:36:48.540Z,81.90
2017-10-19T16:39:16.255Z,83.40
2017-10-19T16:41:43.758Z,78.27
2017-10-19T16:44:11.264Z,98.30
2017-10-19T16:46:38.795Z,79.57
2017-10-19T16:49:06.292Z,90.37
2017-10-19T16:51:33.888Z,87.93
2017-10-19T16:54:01.424Z,85.00
2017-10-19T16:56:28.935Z,79.10
2017-10-19T16:58:56.435Z,81.40
2017-10-19T17:01:24.134Z,78.67
2017-10-19T17:03:51.636Z,81.30
2017-10-19T17:06:19.145Z,82.97
2017-10-19T17:08:46.977Z,79.73
2017-10-19T17:11:14.473Z,91.57
2017-10-19T17:13:41.975Z,81.43
2017-10-19T17:16:09.524Z,75.60
2017-10-19T17:18:37.020Z,75.70
2017-10-19T17:21:04.516Z,81.23
2017-10-19T17:23:32.072Z,82.00
2017-10-19T17:25:59.569Z,77.73
2017-10-19T17:28:27.069Z,77.73
2017-10-19T17:30:54.644Z,77.97
2017-10-19T17:33:22.174Z,79.10
2017-10-19T17:35:49.685Z,83.67
2017-10-19T17:38:17.334Z,78.77
2017-10-19T17:40:44.836Z,84.10
2017-10-19T17:43:12.326Z,89.43
2017-10-19T17:45:39.999Z,68.33
2017-10-19T17:48:07.551Z,75.00
2017-10-19T17:50:35.078Z,67.63
2017-10-19T17:53:02.795Z,69.60
2017-10-19T17:55:30.322Z,75.27
2017-10-19T17:57:57.905Z,77.47
2017-10-19T18:00:25.497Z,73.53
2017-10-19T18:02:53.012Z,75.40
2017-10-19T18:05:20.522Z,66.57
2017-10-19T18:07:48.215Z,70.70
2017-10-19T18:10:15.750Z,69.60
2017-10-19T18:12:43.270Z,69.17
2017-10-19T18:15:10.833Z,71.63
2017-10-19T18:17:38.361Z,67.63
2017-10-19T18:20:05.893Z,62.60
2017-10-19T18:22:33.430Z,64.90
2017-10-19T18:25:01.005Z,70.67
2017-10-19T18:27:28.520Z,69.30
2017-10-19T18:29:56.022Z,71.40
2017-10-19T18:32:23.733Z,70.87
2017-10-19T18:34:51.330Z,73.17
2017-10-19T18:37:18.862Z,76.97
2017-10-19T18:39:46.424Z,75.43
2017-10-19T18:42:13.933Z,73.50
2017-10-19T18:44:41.457Z,74.67
2017-10-19T18:47:09.044Z,69.07
2017-10-19T18:49:36.549Z,69.07
2017-10-19T18:52:04.068Z,68.77
2017-10-19T18:54:31.958Z,74.27
2017-10-19T18:56:59.452Z,73.97
2017-10-19T18:59:26.950Z,72.97
2017-10-19T19:01:54.488Z,94.70
2017-10-19T19:04:21.987Z,73.47
2017-10-19T19:06:49.572Z,74.33
2017-10-19T19:09:17.320Z,74.33
2017-10-19T19:11:44.881Z,68.53
2017-10-19T19:14:12.375Z,72.37
2017-10-19T19:16:39.924Z,72.53
2017-10-19T19:19:07.420Z,73.53
2017-10-19T19:21:35.032Z,73.30
2017-10-19T19:24:02.560Z,75.27
2017-10-19T19:26:30.134Z,79.90
2017-10-19T19:28:57.690Z,77.43
2017-10-19T19:31:25.567Z,75.40
2017-10-19T19:33:53.064Z,77.00
2017-10-19T19:36:20.584Z,79.73
2017-10-19T19:38:48.435Z,79.87
2017-10-19T19:41:16.019Z,76.90
2017-10-19T19:43:43.512Z,77.40
2017-10-19T19:46:11.326Z,79.37
2017-10-19T19:48:38.888Z,70.77
2017-10-19T19:51:06.452Z,80.33
2017-10-19T19:53:33.972Z,75.50
2017-10-19T19:56:01.563Z,67.67
2017-10-19T19:58:29.059Z,77.63
2017-10-19T20:00:56.591Z,71.93
2017-10-19T20:03:24.095Z,77.00
2017-10-19T20:05:51.595Z,78.17
2017-10-19T20:08:19.137Z,87.50
2017-10-19T20:10:46.632Z,83.67
2017-10-19T20:13:14.137Z,85.47
2017-10-19T20:15:41.675Z,93.60
2017-10-19T20:18:09.189Z,92.20
2017-10-19T20:20:36.763Z,131.53
2017-10-19T20:23:04.287Z,101.23
2017-10-19T20:25:31.790Z,134.10
2017-10-19T20:27:59.348Z,99.53
2017-10-19T20:30:26.842Z,101.37
2017-10-19T20:32:54.332Z,96.23
2017-10-19T20:35:21.865Z,84.03
2017-10-19T20:37:49.475Z,87.87
2017-10-19T20:40:16.967Z,85.43
2017-10-19T20:42:44.685Z,85.40
2017-10-19T20:45:12.237Z,79.70
2017-10-19T20:47:39.771Z,78.53
2017-10-19T20:50:07.320Z,76.80
2017-10-19T20:52:34.873Z,81.90
2017-10-19T20:55:02.384Z,78.73
2017-10-19T20:57:29.920Z,80.53
2017-10-19T20:59:57.483Z,82.40
2017-10-19T21:02:24.980Z,82.00
2017-10-19T21:04:52.711Z,79.00
2017-10-19T21:07:20.215Z,78.40
2017-10-19T21:09:47.731Z,80.20
2017-10-19T21:12:15.384Z,87.33
2017-10-19T21:14:42.951Z,83.70
2017-10-19T21:17:10.449Z,86.00
2017-10-19T21:19:37.963Z,94.87
2017-10-19T21:22:05.472Z,88.00
2017-10-19T21:24:32.999Z,94.43
2017-10-19T21:27:00.501Z,88.73
2017-10-19T21:29:28.004Z,88.27
2017-10-19T21:31:55.552Z,97.97
2017-10-19T21:34:23.047Z,93.57
2017-10-19T21:36:50.596Z,97.10
2017-10-19T21:39:18.115Z,98.57
2017-10-19T21:41:45.621Z,99.47
2017-10-19T21:44:13.264Z,100.33
2017-10-19T21:46:40.912Z,125.30
2017-10-19T21:49:08.420Z,115.07
2017-10-19T21:51:36.031Z,110.00
2017-10-19T21:54:03.583Z,106.40
2017-10-19T21:56:31.079Z,103.07
2017-10-19T21:58:58.626Z,99.60
2017-10-19T22:01:26.175Z,101.47
2017-10-19T22:03:53.667Z,107.13
2017-10-19T22:06:21.162Z,111.40
2017-10-19T22:08:48.686Z,97.40
2017-10-19T22:11:16.199Z,92.60
2017-10-19T22:13:43.691Z,97.80
2017-10-19T22:16:11.415Z,105.50
2017-10-19T22:18:38.985Z,97.10
2017-10-19T22:21:06.536Z,96.70
2017-10-19T22:23:34.121Z,94.83
2017-10-19T22:26:01.665Z,88.93
2017-10-19T22:28:29.226Z,84.67
2017-10-19T22:30:56.763Z,87.67
2017-10-19T22:33:24.327Z,87.90
2017-10-19T22:35:51.913Z,85.73
2017-10-19T22:38:19.451Z,85.70
2017-10-19T22:40:46.954Z,88.20
2017-10-19T22:43:14.444Z,84.47
2017-10-19T22:45:42.051Z,87.83
2017-10-19T22:48:09.552Z,84.57
2017-10-19T22:50:37.047Z,86.13
2017-10-19T22:53:04.568Z,87.07
2017-10-19T22:55:32.164Z,85.50
2017-10-19T22:57:59.720Z,79.30
2017-10-19T23:00:28.071Z,93.70
2017-10-19T23:02:55.556Z,82.63
2017-10-19T23:05:23.063Z,81.60
2017-10-19T23:07:50.679Z,77.07
2017-10-19T23:10:18.243Z,77.47
2017-10-19T23:12:45.749Z,78.40
2017-10-19T23:15:13.268Z,76.73
2017-10-19T23:17:40.766Z,78.40
2017-10-19T23:20:08.263Z,74.33
2017-10-19T23:22:35.829Z,76.73
2017-10-19T23:25:04.145Z,74.90
2017-10-19T23:27:31.644Z,76.50
2017-10-19T23:29:59.164Z,77.07
2017-10-19T23:32:26.659Z,76.23
2017-10-19T23:34:54.159Z,80.80
2017-10-19T23:37:21.901Z,84.23
2017-10-19T23:39:49.396Z,80.23
2017-10-19T23:42:16.915Z,82.20
2017-10-19T23:44:44.479Z,76.80
2017-10-19T23:47:12.109Z,75.10
2017-10-19T23:49:39.610Z,83.20
2017-10-19T23:52:07.147Z,79.33
2017-10-19T23:54:34.652Z,77.40
2017-10-19T23:57:02.154Z,77.27
2017-10-19T23:59:29.827Z,70.33
